createdAt,value
2023-05-16T00:00:01.292Z,5.10
2023-05-16T00:02:33.039Z,6.50
2023-05-16T00:05:05.213Z,5.90
2023-05-16T00:07:37.009Z,5.30
2023-05-16T00:12:39.811Z,7.60
2023-05-16T00:15:14.178Z,5.60
2023-05-16T00:17:46.476Z,6.50
2023-05-16T00:20:23.373Z,4.20
2023-05-16T00:22:55.536Z,5.00
2023-05-16T00:25:27.236Z,5.70
2023-05-16T00:30:28.624Z,6.30
2023-05-16T00:33:00.379Z,5.20
2023-05-16T00:35:31.904Z,5.50
2023-05-16T00:38:03.238Z,6.00
2023-05-16T00:40:34.657Z,7.50
2023-05-16T00:43:06.665Z,4.30
2023-05-16T00:45:38.353Z,7.10
2023-05-16T00:50:41.127Z,12.10
2023-05-16T00:53:12.468Z,6.10
2023-05-16T00:55:44.148Z,4.50
2023-05-16T00:58:16.289Z,5.60
2023-05-16T01:00:48.901Z,4.80
2023-05-16T01:03:20.757Z,6.70
2023-05-16T01:05:52.166Z,5.30
2023-05-16T01:08:24.540Z,7.00
2023-05-16T01:11:04.211Z,7.90
2023-05-16T01:13:38.451Z,9.10
2023-05-16T01:16:14.910Z,8.40
2023-05-16T01:18:58.689Z,8.70
2023-05-16T01:21:36.335Z,11.10
2023-05-16T01:24:15.070Z,6.90
2023-05-16T01:26:46.721Z,7.50
2023-05-16T01:31:48.601Z,8.00
2023-05-16T01:34:20.117Z,5.70
2023-05-16T01:36:54.729Z,5.70
2023-05-16T01:39:33.762Z,6.50
2023-05-16T01:42:07.454Z,5.00
2023-05-16T01:44:42.973Z,7.40
2023-05-16T01:47:16.982Z,8.20
2023-05-16T01:49:52.080Z,5.10
2023-05-16T01:52:27.846Z,10.70
2023-05-16T01:54:59.484Z,5.30
2023-05-16T01:57:32.050Z,4.80
2023-05-16T02:00:03.561Z,7.00
2023-05-16T02:02:36.221Z,5.40
2023-05-16T02:05:08.560Z,5.90
2023-05-16T02:07:41.456Z,6.60
2023-05-16T02:12:43.980Z,7.50
2023-05-16T02:15:15.528Z,5.50
2023-05-16T02:17:47.685Z,5.60
2023-05-16T02:20:20.304Z,5.50
2023-05-16T02:22:51.808Z,4.20
2023-05-16T02:25:23.370Z,5.90
2023-05-16T02:27:54.820Z,4.90
2023-05-16T02:30:26.472Z,4.30
2023-05-16T02:32:58.098Z,4.80
2023-05-16T02:35:29.686Z,6.00
2023-05-16T02:40:31.637Z,6.60
2023-05-16T02:43:03.271Z,5.20
2023-05-16T02:45:35.354Z,4.30
2023-05-16T02:48:07.231Z,4.90
2023-05-16T02:50:40.600Z,4.80
2023-05-16T02:53:12.162Z,4.80
2023-05-16T02:55:43.601Z,7.70
2023-05-16T02:58:14.998Z,8.00
2023-05-16T03:00:46.398Z,5.40
2023-05-16T03:03:18.084Z,8.20
2023-05-16T03:08:20.451Z,8.00
2023-05-16T03:10:51.957Z,7.40
2023-05-16T03:13:23.676Z,5.80
2023-05-16T03:15:55.004Z,10.80
2023-05-16T03:18:26.431Z,5.20
2023-05-16T03:20:58.411Z,9.50
2023-05-16T03:23:29.918Z,8.40
2023-05-16T03:26:01.391Z,6.60
2023-05-16T03:28:32.839Z,5.80
2023-05-16T03:31:04.426Z,5.50
2023-05-16T03:33:35.986Z,10.70
2023-05-16T03:36:07.723Z,8.00
2023-05-16T03:41:09.319Z,7.50
2023-05-16T03:46:11.072Z,5.50
2023-05-16T03:51:12.412Z,10.00
2023-05-16T03:56:14.362Z,6.20
2023-05-16T03:58:45.908Z,5.80
2023-05-16T04:01:17.464Z,11.40
2023-05-16T04:03:48.818Z,6.80
2023-05-16T04:06:20.265Z,14.50
2023-05-16T04:08:51.725Z,8.80
2023-05-16T04:11:23.043Z,14.60
2023-05-16T04:13:55.392Z,13.70
2023-05-16T04:16:26.837Z,15.60
2023-05-16T04:18:59.699Z,16.30
2023-05-16T04:21:31.201Z,17.70
2023-05-16T04:24:02.733Z,16.40
2023-05-16T04:26:34.831Z,20.10
2023-05-16T04:29:06.227Z,12.50
2023-05-16T04:31:37.940Z,13.40
2023-05-16T04:36:39.150Z,12.00
2023-05-16T04:39:10.674Z,13.40
2023-05-16T04:41:42.731Z,16.30
2023-05-16T04:44:14.062Z,9.70
2023-05-16T04:46:45.464Z,14.60
2023-05-16T04:49:16.925Z,14.40
2023-05-16T04:51:48.492Z,9.80
2023-05-16T04:54:20.430Z,8.40
2023-05-16T04:56:51.858Z,20.70
2023-05-16T04:59:23.262Z,13.30
2023-05-16T05:01:54.925Z,15.90
2023-05-16T05:06:56.966Z,9.90
2023-05-16T05:09:28.352Z,12.60
2023-05-16T05:11:59.900Z,9.50
2023-05-16T05:14:31.716Z,8.60
2023-05-16T05:17:03.498Z,8.40
2023-05-16T05:19:35.223Z,11.90
2023-05-16T05:22:07.233Z,16.10
2023-05-16T05:24:38.788Z,8.50
2023-05-16T05:29:41.644Z,12.80
2023-05-16T05:32:13.283Z,6.90
2023-05-16T05:34:45.270Z,9.50
2023-05-16T05:37:16.829Z,9.40
2023-05-16T05:39:48.513Z,6.30
2023-05-16T05:42:20.092Z,6.90
2023-05-16T05:44:51.681Z,7.60
2023-05-16T05:47:23.303Z,11.60
2023-05-16T05:49:55.037Z,6.90
2023-05-16T05:54:56.624Z,4.50
2023-05-16T05:57:28.485Z,9.30
2023-05-16T06:00:00.383Z,6.70
2023-05-16T06:02:32.214Z,5.70
2023-05-16T06:05:04.387Z,4.70
2023-05-16T06:07:36.123Z,10.20
2023-05-16T06:10:09.284Z,5.80
2023-05-16T06:12:40.988Z,15.80
2023-05-16T06:15:14.406Z,8.60
2023-05-16T06:17:46.207Z,12.30
2023-05-16T06:20:18.297Z,13.00
2023-05-16T06:22:49.914Z,11.90
2023-05-16T06:25:21.799Z,14.50
2023-05-16T06:27:53.854Z,13.50
2023-05-16T06:30:25.585Z,9.60
2023-05-16T06:35:27.214Z,7.50
2023-05-16T06:37:59.365Z,12.80
2023-05-16T06:40:30.745Z,6.30
2023-05-16T06:43:02.806Z,6.60
2023-05-16T06:45:34.308Z,9.70
2023-05-16T06:48:05.907Z,9.10
2023-05-16T06:50:38.131Z,11.70
2023-05-16T06:53:12.747Z,6.50
2023-05-16T06:55:44.996Z,12.40
2023-05-16T06:58:16.656Z,11.10
2023-05-16T07:03:19.079Z,13.50
2023-05-16T07:05:53.202Z,7.90
2023-05-16T07:08:26.192Z,11.20
2023-05-16T07:10:57.735Z,10.80
2023-05-16T07:16:00.727Z,7.70
2023-05-16T07:18:32.369Z,11.30
2023-05-16T07:21:04.042Z,8.20
2023-05-16T07:23:35.935Z,14.90
2023-05-16T07:26:07.648Z,9.80
2023-05-16T07:28:39.223Z,7.90
2023-05-16T07:31:10.697Z,5.80
2023-05-16T07:33:42.438Z,9.00
2023-05-16T07:36:17.254Z,4.80
2023-05-16T07:38:49.477Z,7.10
2023-05-16T07:41:22.001Z,4.20
2023-05-16T07:43:53.595Z,11.40
2023-05-16T07:48:55.061Z,5.40
2023-05-16T07:53:56.370Z,4.50
2023-05-16T07:56:28.147Z,9.80
2023-05-16T08:01:29.727Z,6.80
2023-05-16T08:04:01.359Z,5.00
2023-05-16T08:06:34.319Z,3.70
2023-05-16T08:09:06.184Z,5.10
2023-05-16T08:11:37.713Z,4.50
2023-05-16T08:16:39.118Z,11.90
2023-05-16T08:19:11.026Z,13.60
2023-05-16T08:21:42.621Z,13.90
2023-05-16T08:24:14.825Z,5.40
2023-05-16T08:26:47.593Z,7.20
2023-05-16T08:31:50.038Z,7.60
2023-05-16T08:34:22.152Z,4.50
2023-05-16T08:36:54.940Z,3.60
2023-05-16T08:39:27.291Z,5.00
2023-05-16T08:41:59.234Z,5.50
2023-05-16T08:44:31.605Z,11.60
2023-05-16T08:47:09.292Z,4.30
2023-05-16T08:49:42.095Z,5.90
2023-05-16T08:52:13.724Z,3.30
2023-05-16T08:54:48.527Z,3.60
2023-05-16T08:57:24.372Z,4.50
2023-05-16T08:59:59.260Z,5.30
2023-05-16T09:02:31.205Z,4.80
2023-05-16T09:05:02.982Z,4.60
2023-05-16T09:07:34.793Z,12.70
2023-05-16T09:10:07.370Z,4.30
2023-05-16T09:12:38.834Z,3.90
2023-05-16T09:15:12.041Z,3.20
2023-05-16T09:17:46.939Z,5.30
2023-05-16T09:20:20.482Z,3.70
2023-05-16T09:22:56.355Z,2.90
2023-05-16T09:25:32.587Z,5.00
2023-05-16T09:28:04.336Z,5.10
2023-05-16T09:30:37.408Z,2.60
2023-05-16T09:33:09.789Z,3.60
2023-05-16T09:35:45.384Z,4.30
2023-05-16T09:38:20.756Z,4.70
2023-05-16T09:40:53.172Z,4.10
2023-05-16T09:43:26.553Z,3.20
2023-05-16T09:46:00.578Z,9.30
2023-05-16T09:48:32.119Z,3.30
2023-05-16T09:53:36.332Z,4.40
2023-05-16T09:56:09.138Z,9.60
2023-05-16T09:58:41.731Z,8.70
2023-05-16T10:01:13.453Z,2.10
2023-05-16T10:03:45.345Z,6.60
2023-05-16T10:06:17.404Z,2.80
2023-05-16T10:08:48.935Z,8.20
2023-05-16T10:11:20.559Z,7.20
2023-05-16T10:13:53.604Z,3.00
2023-05-16T10:16:25.585Z,5.20
2023-05-16T10:18:57.467Z,6.80
2023-05-16T10:21:29.951Z,5.80
2023-05-16T10:24:03.552Z,6.00
2023-05-16T10:26:35.459Z,2.70
2023-05-16T10:29:07.713Z,5.90
2023-05-16T10:31:39.135Z,3.80
2023-05-16T10:36:40.846Z,2.20
2023-05-16T10:39:12.804Z,4.20
2023-05-16T10:41:44.913Z,3.20
2023-05-16T10:44:17.748Z,3.20
2023-05-16T10:46:49.897Z,3.80
2023-05-16T10:49:25.552Z,2.80
2023-05-16T10:52:11.029Z,4.80
2023-05-16T10:54:44.080Z,5.20
2023-05-16T10:57:17.905Z,4.50
2023-05-16T10:59:50.213Z,5.30
2023-05-16T11:02:29.737Z,3.70
2023-05-16T11:05:02.163Z,3.00
2023-05-16T11:07:36.336Z,6.90
2023-05-16T11:10:10.279Z,3.00
2023-05-16T11:12:46.708Z,4.20
2023-05-16T11:15:27.368Z,3.00
2023-05-16T11:18:09.996Z,4.30
2023-05-16T11:20:41.646Z,5.10
2023-05-16T11:23:27.933Z,2.40
2023-05-16T11:26:00.918Z,4.80
2023-05-16T11:28:32.628Z,6.70
2023-05-16T11:31:05.713Z,8.80
2023-05-16T11:33:37.896Z,7.10
2023-05-16T11:38:45.086Z,4.40
2023-05-16T11:41:18.030Z,3.30
2023-05-16T11:43:49.719Z,4.70
2023-05-16T11:46:21.251Z,2.70
2023-05-16T11:48:53.471Z,4.90
2023-05-16T11:51:25.268Z,4.90
2023-05-16T11:53:57.991Z,6.70
2023-05-16T11:56:29.508Z,6.40
2023-05-16T12:01:38.734Z,3.20
2023-05-16T12:04:13.915Z,3.00
2023-05-16T12:06:45.817Z,6.00
2023-05-16T12:09:18.622Z,6.00
2023-05-16T12:11:50.889Z,5.60
2023-05-16T12:14:22.778Z,6.30
2023-05-16T12:16:55.618Z,9.30
2023-05-16T12:19:27.542Z,4.90
2023-05-16T12:21:59.813Z,3.60
2023-05-16T12:24:34.940Z,8.10
2023-05-16T12:27:07.042Z,5.50
2023-05-16T12:29:38.602Z,5.40
2023-05-16T12:34:42.788Z,13.40
2023-05-16T12:37:14.295Z,10.00
2023-05-16T12:42:17.144Z,4.70
2023-05-16T12:44:49.575Z,3.50
2023-05-16T12:47:22.283Z,3.20
2023-05-16T12:49:54.662Z,3.60
2023-05-16T12:52:27.243Z,11.60
2023-05-16T12:54:58.739Z,6.40
2023-05-16T13:00:01.033Z,8.60
2023-05-16T13:02:33.166Z,3.40
2023-05-16T13:05:04.889Z,3.30
2023-05-16T13:10:10.537Z,8.80
2023-05-16T13:12:42.422Z,2.70
2023-05-16T13:15:15.370Z,4.50
2023-05-16T13:17:48.524Z,5.60
2023-05-16T13:20:21.572Z,6.50
2023-05-16T13:22:53.048Z,3.30
2023-05-16T13:25:24.828Z,3.00
2023-05-16T13:27:56.285Z,3.00
2023-05-16T13:30:29.264Z,6.40
2023-05-16T13:33:01.164Z,3.90
2023-05-16T13:35:32.989Z,6.90
2023-05-16T13:38:05.237Z,3.90
2023-05-16T13:40:37.072Z,8.60
2023-05-16T13:43:08.551Z,3.60
2023-05-16T13:45:40.105Z,4.20
2023-05-16T13:50:44.174Z,3.10
2023-05-16T13:53:16.146Z,4.50
2023-05-16T13:55:47.648Z,4.50
2023-05-16T14:00:49.279Z,13.00
2023-05-16T14:03:21.219Z,7.50
2023-05-16T14:05:53.006Z,5.50
2023-05-16T14:08:24.412Z,4.70
2023-05-16T14:10:55.855Z,6.60
2023-05-16T14:13:27.319Z,4.60
2023-05-16T14:15:58.768Z,10.60
2023-05-16T14:18:30.986Z,7.50
2023-05-16T14:21:02.506Z,9.60
2023-05-16T14:23:33.833Z,10.70
2023-05-16T14:26:07.524Z,12.50
2023-05-16T14:28:39.723Z,13.50
2023-05-16T14:31:11.773Z,6.20
2023-05-16T14:33:44.244Z,14.00
2023-05-16T14:36:16.619Z,11.90
2023-05-16T14:38:49.438Z,11.80
2023-05-16T14:41:21.281Z,13.20
2023-05-16T14:43:52.825Z,11.80
2023-05-16T14:48:54.707Z,13.50
2023-05-16T14:51:26.130Z,13.40
2023-05-16T14:56:28.462Z,12.60
2023-05-16T14:59:00.621Z,8.50
2023-05-16T15:01:32.254Z,11.70
2023-05-16T15:04:03.873Z,4.60
2023-05-16T15:09:06.175Z,12.10
2023-05-16T15:11:37.742Z,9.30
2023-05-16T15:14:09.297Z,12.10
2023-05-16T15:16:41.053Z,14.30
2023-05-16T15:19:12.728Z,8.00
2023-05-16T15:24:14.751Z,9.80
2023-05-16T15:26:46.408Z,10.90
2023-05-16T15:31:49.520Z,11.20
2023-05-16T15:34:21.252Z,14.80
2023-05-16T15:39:22.530Z,10.60
2023-05-16T15:42:08.572Z,13.00
2023-05-16T15:44:41.873Z,9.60
2023-05-16T15:49:43.792Z,9.60
2023-05-16T15:54:45.706Z,4.70
2023-05-16T15:57:17.382Z,11.60
2023-05-16T16:02:19.118Z,6.50
2023-05-16T16:07:21.340Z,10.80
2023-05-16T16:09:52.829Z,6.90
2023-05-16T16:12:24.315Z,10.60
2023-05-16T16:14:56.286Z,11.20
2023-05-16T16:17:28.290Z,18.70
2023-05-16T16:19:59.710Z,12.50
2023-05-16T16:22:31.343Z,10.50
2023-05-16T16:25:03.894Z,7.90
2023-05-16T16:27:35.360Z,16.60
2023-05-16T16:30:08.722Z,7.30
2023-05-16T16:32:40.420Z,8.30
2023-05-16T16:37:48.732Z,8.50
2023-05-16T16:40:26.340Z,7.60
2023-05-16T16:43:01.547Z,7.20
2023-05-16T16:45:33.453Z,7.10
2023-05-16T16:48:05.906Z,4.70
2023-05-16T16:50:37.593Z,8.60
2023-05-16T16:53:09.026Z,5.60
2023-05-16T16:55:41.130Z,5.50
2023-05-16T16:58:12.699Z,4.90
2023-05-16T17:00:44.814Z,5.10
2023-05-16T17:03:16.398Z,7.30
2023-05-16T17:08:20.065Z,5.70
2023-05-16T17:10:52.003Z,5.10
2023-05-16T17:13:23.771Z,4.50
2023-05-16T17:15:55.152Z,6.00
2023-05-16T17:18:26.914Z,4.70
2023-05-16T17:20:58.454Z,6.40
2023-05-16T17:25:59.915Z,4.40
2023-05-16T17:28:32.738Z,8.20
2023-05-16T17:31:04.463Z,5.50
2023-05-16T17:33:35.919Z,7.60
2023-05-16T17:36:08.467Z,7.40
2023-05-16T17:38:39.918Z,5.80
2023-05-16T17:41:11.483Z,6.10
2023-05-16T17:46:16.927Z,4.60
2023-05-16T17:48:48.445Z,7.50
2023-05-16T17:51:19.983Z,5.00
2023-05-16T17:53:51.662Z,5.20
2023-05-16T17:58:53.641Z,3.70
2023-05-16T18:01:25.219Z,5.20
2023-05-16T18:06:27.135Z,5.70
2023-05-16T18:08:58.918Z,6.20
2023-05-16T18:11:30.787Z,3.90
2023-05-16T18:16:33.285Z,5.90
2023-05-16T18:19:05.722Z,6.20
2023-05-16T18:21:38.683Z,4.50
2023-05-16T18:24:13.406Z,4.40
2023-05-16T18:26:48.702Z,4.90
2023-05-16T18:29:20.480Z,6.40
2023-05-16T18:31:52.107Z,3.70
2023-05-16T18:34:23.621Z,5.70
2023-05-16T18:36:57.677Z,4.30
2023-05-16T18:39:29.244Z,4.30
2023-05-16T18:44:30.730Z,5.80
2023-05-16T18:47:02.378Z,4.40
2023-05-16T18:54:35.983Z,5.50
2023-05-16T18:57:08.443Z,5.20
2023-05-16T18:59:39.909Z,5.90
2023-05-16T19:02:11.645Z,6.30
2023-05-16T19:07:13.206Z,9.50
2023-05-16T19:12:14.760Z,3.80
2023-05-16T19:14:46.552Z,7.60
2023-05-16T19:17:18.152Z,4.30
2023-05-16T19:22:19.627Z,4.20
2023-05-16T19:24:51.809Z,4.50
2023-05-16T19:27:23.655Z,6.40
2023-05-16T19:29:55.048Z,5.40
2023-05-16T19:32:26.611Z,3.90
2023-05-16T19:37:29.265Z,7.30
2023-05-16T19:40:00.790Z,5.40
2023-05-16T19:42:32.835Z,3.40
2023-05-16T19:45:04.975Z,3.60
2023-05-16T19:47:37.518Z,4.70
2023-05-16T19:50:11.325Z,3.70
2023-05-16T19:52:43.058Z,5.20
2023-05-16T19:57:44.549Z,6.80
2023-05-16T20:00:17.830Z,3.80
2023-05-16T20:02:49.334Z,4.10
2023-05-16T20:07:56.566Z,3.20
2023-05-16T20:10:28.624Z,4.00
2023-05-16T20:13:00.237Z,4.90
2023-05-16T20:18:03.613Z,6.00
2023-05-16T20:20:35.676Z,3.90
2023-05-16T20:23:07.851Z,4.30
2023-05-16T20:25:40.306Z,3.80
2023-05-16T20:28:12.117Z,3.60
2023-05-16T20:33:13.562Z,3.90
2023-05-16T20:38:15.133Z,6.60
2023-05-16T20:43:16.491Z,5.70
2023-05-16T20:45:48.061Z,4.10
2023-05-16T20:48:19.996Z,4.80
2023-05-16T20:50:51.912Z,4.20
2023-05-16T20:53:23.498Z,4.50
2023-05-16T20:58:25.111Z,3.50
2023-05-16T21:03:27.494Z,4.20
2023-05-16T21:05:59.401Z,5.20
2023-05-16T21:08:31.539Z,3.40
2023-05-16T21:11:03.948Z,3.40
2023-05-16T21:16:05.838Z,4.10
2023-05-16T21:18:37.579Z,3.70
2023-05-16T21:21:09.542Z,3.20
2023-05-16T21:23:41.784Z,6.30
2023-05-16T21:26:13.341Z,9.40
2023-05-16T21:28:54.414Z,9.00
2023-05-16T21:31:26.880Z,3.60
2023-05-16T21:33:58.624Z,3.90
2023-05-16T21:36:30.154Z,4.50
2023-05-16T21:39:02.083Z,3.80
2023-05-16T21:41:34.382Z,8.60
2023-05-16T21:44:06.544Z,5.10
2023-05-16T21:46:37.929Z,3.70
2023-05-16T21:49:09.659Z,4.20
2023-05-16T21:51:41.301Z,6.00
2023-05-16T21:54:13.214Z,5.20
2023-05-16T21:56:44.865Z,5.00
2023-05-16T21:59:16.480Z,4.80
2023-05-16T22:01:48.640Z,4.20
2023-05-16T22:04:20.508Z,3.90
2023-05-16T22:06:52.292Z,5.90
2023-05-16T22:09:24.079Z,5.40
2023-05-16T22:11:56.076Z,7.00
2023-05-16T22:14:27.822Z,5.90
2023-05-16T22:16:59.315Z,5.00
2023-05-16T22:19:31.049Z,6.20
2023-05-16T22:24:32.712Z,10.90
2023-05-16T22:27:04.399Z,4.80
2023-05-16T22:32:10.992Z,13.10
2023-05-16T22:34:42.786Z,7.90
2023-05-16T22:37:14.266Z,6.60
2023-05-16T22:39:45.846Z,22.80
2023-05-16T22:42:17.643Z,26.20
2023-05-16T22:44:49.108Z,30.00
2023-05-16T22:47:21.267Z,39.70
2023-05-16T22:49:52.780Z,33.40
2023-05-16T22:52:24.172Z,42.30
2023-05-16T22:54:55.677Z,39.60
2023-05-16T22:57:27.419Z,39.70
2023-05-16T23:00:00.460Z,42.40
2023-05-16T23:02:32.060Z,45.30
2023-05-16T23:07:33.767Z,55.70
2023-05-16T23:12:36.039Z,48.00
2023-05-16T23:17:42.240Z,37.50
2023-05-16T23:20:14.593Z,33.70
2023-05-16T23:22:46.153Z,20.70
2023-05-16T23:25:17.587Z,19.60
2023-05-16T23:27:49.484Z,11.60
2023-05-16T23:30:21.272Z,14.30
2023-05-16T23:32:53.668Z,16.50
2023-05-16T23:35:25.835Z,12.70
2023-05-16T23:37:57.639Z,9.20
2023-05-16T23:40:29.421Z,11.00
2023-05-16T23:45:31.135Z,12.30
2023-05-16T23:48:03.011Z,12.70
2023-05-16T23:50:37.499Z,15.00
2023-05-16T23:53:08.936Z,15.10
2023-05-16T23:55:40.563Z,13.90
2023-05-16T23:58:12.133Z,14.80
